Time;durP1;ratioP1;P1;durP2;ratioP2;P2;SDS_P1;SDS_P2;PMS_P1;PMS_P2;Temp;Humidity;BMP_temperature;BMP_pressure;BME280_temperature;BME280_humidity;BME280_pressure;Samples;Min_cycle;Max_cycle;Signal;HPM_P1;HPM_P2
2023/01/12 00:01:29;;;;;;;12.73;11.15;;;7.10;99.90;;;;;;4947914;28;20116;-76
2023/01/12 00:03:56;;;;;;;12.27;11.55;;;7.20;99.90;;;;;;4944637;28;20039;-78
2023/01/12 00:06:24;;;;;;;11.93;11.23;;;7.10;99.90;;;;;;4933845;28;20071;-76
2023/01/12 00:08:51;;;;;;;12.90;11.60;;;7.10;99.90;;;;;;4937179;28;20061;-77
2023/01/12 00:11:19;;;;;;;13.65;12.27;;;7.10;99.90;;;;;;4939537;28;20058;-77
2023/01/12 00:13:47;;;;;;;14.48;13.15;;;7.20;99.90;;;;;;4941181;28;20035;-77
2023/01/12 00:16:36;;;;;;;14.25;12.95;;;7.20;99.90;;;;;;4939565;28;20047;-77
2023/01/12 00:19:14;;;;;;;13.73;12.48;;;7.30;99.90;;;;;;4948546;28;20790;-77
2023/01/12 00:24:38;;;;;;;20.42;11.07;;;7.20;99.90;;;;;;4938025;28;20431;-77
2023/01/12 00:27:08;;;;;;;12.05;10.93;;;7.10;99.90;;;;;;4944900;28;20047;-77
2023/01/12 00:29:35;;;;;;;14.60;10.75;;;7.00;99.90;;;;;;4939301;28;20101;-77
2023/01/12 00:32:04;;;;;;;17.23;10.50;;;7.00;99.90;;;;;;4943777;28;20048;-77
2023/01/12 00:34:31;;;;;;;10.40;9.63;;;7.00;99.90;;;;;;4959142;28;20042;-76
2023/01/12 00:37:01;;;;;;;10.50;9.40;;;7.00;99.90;;;;;;4944592;28;20035;-76
2023/01/12 00:39:28;;;;;;;12.98;10.07;;;7.00;99.90;;;;;;4942702;28;20078;-77
2023/01/12 00:47:26;;;;;;;;;;;6.90;99.90;;;;;;4958414;28;20047;-77
2023/01/12 00:49:53;;;;;;;14.85;7.60;;;7.00;99.90;;;;;;4949055;28;19952;-77
2023/01/12 00:52:20;;;;;;;12.02;8.20;;;7.00;99.90;;;;;;4945779;28;20757;-77
2023/01/12 00:54:58;;;;;;;10.32;7.97;;;6.90;99.90;;;;;;4936205;28;20093;-77
2023/01/12 00:57:25;;;;;;;10.40;7.97;;;6.90;99.90;;;;;;4948560;28;20070;-77
2023/01/12 00:59:56;;;;;;;11.57;8.23;;;7.00;99.90;;;;;;4946893;28;20383;-77
2023/01/12 01:02:24;;;;;;;10.75;8.38;;;6.90;99.90;;;;;;4941292;28;20043;-77
2023/01/12 01:04:51;;;;;;;13.50;8.52;;;7.00;99.90;;;;;;4931620;28;20039;-78
2023/01/12 01:07:20;;;;;;;8.90;7.93;;;7.00;99.90;;;;;;4948423;28;20035;-77
2023/01/12 01:09:47;;;;;;;8.63;7.82;;;7.00;99.90;;;;;;4946615;28;20671;-77
2023/01/12 01:12:14;;;;;;;10.77;8.07;;;7.00;99.90;;;;;;4944711;28;20134;-78
2023/01/12 01:14:40;;;;;;;8.80;8.00;;;7.00;99.90;;;;;;4938277;28;20044;-77
2023/01/12 01:17:07;;;;;;;9.50;8.75;;;7.00;99.90;;;;;;4951043;28;20049;-78
2023/01/12 01:19:34;;;;;;;8.52;7.75;;;7.10;99.90;;;;;;4949168;28;20074;-78
2023/01/12 01:22:00;;;;;;;8.77;8.23;;;7.10;99.90;;;;;;4939509;28;20053;-77
2023/01/12 01:24:27;;;;;;;9.45;8.80;;;7.10;99.90;;;;;;4946109;28;20044;-77
2023/01/12 01:26:54;;;;;;;10.43;9.60;;;7.20;99.90;;;;;;4945605;28;20047;-77
2023/01/12 01:29:20;;;;;;;12.35;11.20;;;7.20;99.90;;;;;;4944279;28;20055;-77
2023/01/12 01:31:47;;;;;;;14.45;10.88;;;7.20;99.90;;;;;;4938868;28;20142;-77
2023/01/12 01:34:14;;;;;;;11.65;10.55;;;7.20;99.90;;;;;;4944435;28;20039;-77
2023/01/12 01:36:41;;;;;;;11.05;10.13;;;7.30;99.90;;;;;;4940277;28;20058;-76
2023/01/12 01:39:08;;;;;;;10.40;9.80;;;7.20;99.90;;;;;;4945172;28;20493;-77
2023/01/12 01:41:34;;;;;;;12.63;11.23;;;7.20;99.90;;;;;;4947391;28;20658;-77
2023/01/12 01:44:05;;;;;;;10.82;10.13;;;7.20;99.90;;;;;;4941613;28;20763;-77
2023/01/12 01:46:48;;;;;;;11.57;10.57;;;7.30;99.90;;;;;;4946788;28;20047;-77
2023/01/12 01:49:38;;;;;;;10.93;10.10;;;7.30;99.90;;;;;;4935976;28;20055;-77
2023/01/12 01:52:12;;;;;;;9.88;9.00;;;7.30;99.90;;;;;;4944967;28;20065;-76
2023/01/12 01:54:50;;;;;;;8.63;7.97;;;7.20;99.90;;;;;;4937902;28;20039;-77
2023/01/12 01:57:17;;;;;;;7.65;6.95;;;7.20;99.90;;;;;;4945611;28;20043;-77
2023/01/12 01:59:54;;;;;;;7.30;5.30;;;7.10;99.90;;;;;;4958894;28;20126;-78
2023/01/12 02:02:24;;;;;;;5.80;4.55;;;7.00;99.90;;;;;;4940438;28;20047;-79
2023/01/12 02:04:52;;;;;;;8.88;3.85;;;6.90;99.90;;;;;;4951234;28;20062;-78
2023/01/12 02:07:19;;;;;;;5.97;3.72;;;6.90;99.90;;;;;;4942136;28;20196;-80
2023/01/12 02:09:46;;;;;;;7.00;4.40;;;6.90;99.90;;;;;;4950192;28;20059;-80
2023/01/12 02:18:02;;;;;;;6.47;2.92;;;6.80;99.90;;;;;;4942911;28;20085;-78
2023/01/12 02:20:48;;;;;;;;;;;6.80;99.90;;;;;;4941846;28;20134;-77
2023/01/12 02:23:39;;;;;;;3.30;2.17;;;6.80;99.90;;;;;;4944400;28;19953;-78
2023/01/12 02:26:21;;;;;;;4.22;2.20;;;6.80;99.90;;;;;;4944617;28;20291;-78
2023/01/12 02:29:18;;;;;;;3.53;1.90;;;6.80;99.90;;;;;;4938922;28;20542;-78
2023/01/12 02:32:26;;;;;;;14.65;2.28;;;6.80;99.90;;;;;;4942629;28;20062;-78
2023/01/12 02:34:59;;;;;;;8.88;1.95;;;6.80;99.90;;;;;;4958488;28;20195;-77
2023/01/12 02:37:34;;;;;;;8.07;2.00;;;6.80;99.90;;;;;;4952004;28;20075;-79
2023/01/12 02:40:28;;;;;;;2.45;1.83;;;6.80;99.90;;;;;;4939985;28;20055;-78
2023/01/12 02:43:07;;;;;;;2.00;1.80;;;6.80;99.90;;;;;;4947755;28;20070;-79
2023/01/12 02:45:51;;;;;;;5.63;2.45;;;6.90;99.90;;;;;;4940279;28;20129;-78
2023/01/12 02:48:21;;;;;;;2.95;1.92;;;6.90;99.90;;;;;;4940962;28;20051;-78
2023/01/12 02:51:06;;;;;;;6.30;3.05;;;6.90;99.90;;;;;;4938461;28;20047;-78
2023/01/12 02:53:42;;;;;;;;;;;7.00;99.90;;;;;;4950224;28;20039;-77
2023/01/12 02:56:10;;;;;;;;;;;7.00;99.90;;;;;;4943984;28;19929;-77
2023/01/12 02:58:42;;;;;;;4.20;2.80;;;7.00;99.90;;;;;;4946904;28;19922;-77
2023/01/12 03:01:10;;;;;;;2.90;2.70;;;7.00;99.90;;;;;;4944269;28;20554;-77
2023/01/12 03:03:38;;;;;;;5.63;2.70;;;7.10;99.90;;;;;;4943118;28;20067;-78
2023/01/12 03:06:07;;;;;;;4.93;3.20;;;7.10;99.90;;;;;;4949134;28;20601;-77
2023/01/12 03:08:38;;;;;;;3.45;3.15;;;7.10;99.90;;;;;;4935195;28;20054;-77
2023/01/12 03:11:16;;;;;;;3.45;3.25;;;7.10;99.90;;;;;;4931797;28;20043;-77
2023/01/12 03:13:49;;;;;;;4.35;3.95;;;7.20;99.90;;;;;;4939921;28;20047;-77
2023/01/12 03:16:27;;;;;;;3.90;3.58;;;7.20;99.90;;;;;;4948862;28;20047;-77
2023/01/12 03:19:04;;;;;;;5.05;3.55;;;7.20;99.90;;;;;;4938568;28;20047;-78
2023/01/12 03:21:37;;;;;;;3.65;3.05;;;7.20;99.90;;;;;;4935693;28;20132;-78
2023/01/12 03:24:14;;;;;;;3.75;3.55;;;7.20;99.90;;;;;;4931400;28;20077;-78
2023/01/12 03:26:45;;;;;;;7.95;3.85;;;7.20;99.90;;;;;;4940249;28;20050;-78
2023/01/12 03:29:18;;;;;;;6.03;3.67;;;7.20;99.90;;;;;;4943091;28;20050;-77
2023/01/12 03:31:45;;;;;;;4.22;3.83;;;7.30;99.90;;;;;;4934162;28;20068;-78
2023/01/12 03:34:12;;;;;;;5.15;3.92;;;7.20;99.90;;;;;;4942947;28;20648;-77
2023/01/12 03:36:50;;;;;;;5.82;4.10;;;7.30;99.90;;;;;;4944146;28;20475;-77
2023/01/12 03:39:35;;;;;;;4.30;3.90;;;7.30;99.90;;;;;;4939344;28;20622;-77
2023/01/12 03:42:36;;;;;;;4.80;4.15;;;7.30;99.90;;;;;;4941274;28;20164;-77
2023/01/12 03:45:32;;;;;;;4.60;4.20;;;7.20;99.90;;;;;;4928425;28;20122;-77
2023/01/12 03:48:23;;;;;;;4.35;4.03;;;7.40;99.90;;;;;;4942099;28;20054;-78
2023/01/12 03:50:58;;;;;;;5.55;3.63;;;7.30;99.90;;;;;;4945144;28;20050;-79
2023/01/12 03:53:25;;;;;;;;;;;7.30;99.90;;;;;;4945036;28;20063;-78
2023/01/12 03:56:01;;;;;;;10.32;3.28;;;7.30;99.90;;;;;;4944184;28;19929;-79
2023/01/12 03:58:27;;;;;;;5.82;2.95;;;7.30;99.90;;;;;;4945040;28;20050;-79
2023/01/12 04:00:54;;;;;;;5.60;2.63;;;7.20;99.90;;;;;;4937947;28;20035;-79
2023/01/12 04:03:23;;;;;;;2.88;2.25;;;7.20;99.90;;;;;;4938296;28;20051;-79
2023/01/12 04:05:50;;;;;;;5.70;2.17;;;7.20;99.90;;;;;;4936157;28;20502;-78
2023/01/12 04:08:16;;;;;;;4.28;2.63;;;7.20;99.90;;;;;;4936765;28;20040;-79
2023/01/12 04:10:43;;;;;;;3.10;2.78;;;7.20;99.90;;;;;;4942396;28;20043;-79
2023/01/12 04:13:10;;;;;;;5.85;2.50;;;7.20;99.90;;;;;;4940234;28;20055;-79
2023/01/12 04:15:41;;;;;;;7.18;2.20;;;7.10;99.90;;;;;;4938217;28;20057;-78
2023/01/12 04:18:09;;;;;;;3.63;2.20;;;7.20;99.90;;;;;;4944663;28;20039;-79
2023/01/12 04:20:36;;;;;;;4.07;3.00;;;7.20;99.90;;;;;;4939051;28;20039;-79
2023/01/12 04:23:03;;;;;;;3.25;2.35;;;7.20;99.90;;;;;;4945082;28;20126;-79
2023/01/12 04:25:30;;;;;;;4.05;1.95;;;7.20;99.90;;;;;;4936876;28;20039;-80
2023/01/12 04:28:07;;;;;;;2.92;2.10;;;7.20;99.90;;;;;;4947986;28;20075;-79
2023/01/12 04:30:35;;;;;;;6.70;2.25;;;7.20;99.90;;;;;;4944306;28;20055;-79
2023/01/12 04:33:06;;;;;;;3.33;2.33;;;7.20;99.90;;;;;;4952200;28;20047;-78
2023/01/12 04:35:33;;;;;;;6.45;2.97;;;7.20;99.90;;;;;;4946947;28;20047;-80
2023/01/12 04:38:07;;;;;;;5.60;2.63;;;7.20;99.90;;;;;;4947173;28;20070;-80
2023/01/12 04:40:34;;;;;;;4.75;2.08;;;7.20;99.90;;;;;;4936511;28;20570;-79
2023/01/12 04:43:05;;;;;;;2.58;2.20;;;7.20;99.90;;;;;;4958402;28;20121;-79
2023/01/12 04:45:36;;;;;;;4.25;1.88;;;7.20;99.90;;;;;;4947996;28;20053;-80
2023/01/12 04:48:09;;;;;;;2.80;2.00;;;7.20;99.90;;;;;;4972587;28;20277;-79
2023/01/12 04:50:37;;;;;;;6.05;1.92;;;7.20;99.90;;;;;;4953544;28;20050;-79
2023/01/12 04:53:06;;;;;;;5.30;2.78;;;7.20;99.90;;;;;;4958345;28;20052;-78
2023/01/12 04:55:37;;;;;;;8.65;2.33;;;7.20;99.90;;;;;;4947033;28;20047;-80
2023/01/12 04:58:04;;;;;;;4.78;2.35;;;7.20;99.90;;;;;;4939380;28;20053;-79
2023/01/12 05:00:31;;;;;;;5.18;2.38;;;7.20;99.90;;;;;;4940214;28;20039;-78
2023/01/12 05:03:01;;;;;;;2.85;2.20;;;7.20;99.90;;;;;;4946143;28;20039;-78
2023/01/12 05:05:29;;;;;;;5.07;1.98;;;7.20;99.90;;;;;;4925223;28;20172;-79
2023/01/12 05:10:53;;;;;;;8.68;2.60;;;7.30;99.90;;;;;;4942262;28;20101;-79
2023/01/12 05:13:21;;;;;;;3.25;2.20;;;7.30;99.90;;;;;;4935467;28;20117;-79
2023/01/12 05:15:48;;;;;;;7.15;2.33;;;7.30;99.90;;;;;;4944398;28;20028;-79
2023/01/12 05:18:14;;;;;;;3.75;2.80;;;7.30;99.90;;;;;;4952769;28;20107;-80
2023/01/12 05:20:41;;;;;;;3.88;3.38;;;7.30;99.90;;;;;;4941392;28;20040;-79
2023/01/12 05:23:08;;;;;;;4.20;3.80;;;7.30;99.90;;;;;;4951500;28;20586;-78
2023/01/12 05:25:35;;;;;;;5.85;4.15;;;7.30;99.90;;;;;;4937455;28;20558;-80
2023/01/12 05:28:02;;;;;;;5.90;3.95;;;7.30;99.90;;;;;;4945360;28;20054;-78
2023/01/12 05:30:29;;;;;;;3.90;3.60;;;7.40;99.90;;;;;;4956934;28;20110;-80
2023/01/12 05:32:58;;;;;;;5.35;4.72;;;7.40;99.90;;;;;;4947215;28;20136;-79
2023/01/12 05:35:24;;;;;;;6.32;5.07;;;7.40;99.90;;;;;;4946976;28;20109;-80
2023/01/12 05:37:56;;;;;;;4.30;3.72;;;7.40;99.90;;;;;;4943410;28;20046;-80
2023/01/12 05:40:23;;;;;;;8.70;5.47;;;7.40;99.90;;;;;;4935886;28;20044;-79
2023/01/12 05:45:36;;;;;;;6.05;5.50;;;7.40;99.90;;;;;;4969729;28;20039;-79
2023/01/12 05:48:02;;;;;;;5.57;5.15;;;7.50;99.90;;;;;;4959690;28;20047;-79
2023/01/12 05:50:29;;;;;;;5.30;4.80;;;7.50;99.90;;;;;;4948483;28;20051;-79
2023/01/12 05:53:09;;;;;;;5.18;4.80;;;7.50;99.90;;;;;;4939603;28;20035;-79
2023/01/12 05:55:37;;;;;;;6.05;5.85;;;7.50;99.90;;;;;;4949077;28;20138;-80
2023/01/12 05:58:03;;;;;;;6.45;6.05;;;7.60;99.90;;;;;;4944453;28;20569;-79
2023/01/12 06:00:30;;;;;;;6.32;6.05;;;7.60;99.90;;;;;;4938021;28;20126;-78
2023/01/12 06:02:57;;;;;;;6.47;5.97;;;7.60;99.90;;;;;;4951106;28;20504;-76
2023/01/12 06:05:23;;;;;;;6.50;6.30;;;7.60;99.90;;;;;;4944228;28;20134;-78
2023/01/12 06:07:50;;;;;;;6.50;6.20;;;7.60;99.90;;;;;;4945162;28;20588;-79
2023/01/12 06:10:17;;;;;;;6.32;6.03;;;7.60;99.90;;;;;;4948838;28;20053;-78
2023/01/12 06:15:31;;;;;;;6.03;5.45;;;7.60;99.90;;;;;;4947630;28;20563;-79
2023/01/12 06:17:58;;;;;;;5.70;5.32;;;7.50;99.90;;;;;;4946999;28;20101;-80
2023/01/12 06:20:24;;;;;;;6.20;5.90;;;7.50;99.90;;;;;;4956910;28;20053;-79
2023/01/12 06:22:51;;;;;;;5.38;5.18;;;7.60;99.90;;;;;;4935384;28;20503;-79
2023/01/12 06:25:18;;;;;;;4.93;4.72;;;7.60;99.90;;;;;;4947734;28;20488;-79
2023/01/12 06:27:45;;;;;;;5.07;4.60;;;7.50;99.90;;;;;;4928788;28;20089;-80
2023/01/12 06:30:12;;;;;;;4.85;4.55;;;7.50;99.90;;;;;;4945402;28;20126;-78
2023/01/12 06:32:40;;;;;;;5.40;4.97;;;7.50;99.90;;;;;;4951545;28;20050;-80
2023/01/12 06:35:07;;;;;;;5.30;5.00;;;7.60;99.90;;;;;;4950820;28;20066;-79
2023/01/12 06:37:45;;;;;;;4.97;4.78;;;7.50;99.90;;;;;;4948824;28;20101;-79
2023/01/12 06:40:12;;;;;;;5.68;5.25;;;7.50;99.90;;;;;;4944833;28;20089;-80
2023/01/12 06:42:40;;;;;;;5.35;4.93;;;7.50;99.90;;;;;;4947902;28;20040;-79
2023/01/12 06:45:08;;;;;;;5.63;5.22;;;7.50;99.90;;;;;;4954035;28;20055;-79
2023/01/12 06:47:46;;;;;;;5.10;4.80;;;7.50;99.90;;;;;;4940347;28;20043;-80
2023/01/12 06:50:12;;;;;;;5.43;5.18;;;7.50;99.90;;;;;;4949111;28;20130;-80
2023/01/12 06:52:39;;;;;;;5.30;4.90;;;7.50;99.90;;;;;;4946281;28;20138;-79
2023/01/12 06:55:06;;;;;;;4.97;4.50;;;7.50;99.90;;;;;;4950566;28;20049;-79
2023/01/12 06:57:35;;;;;;;5.10;4.72;;;7.50;99.90;;;;;;4945266;28;20670;-77
2023/01/12 07:00:06;;;;;;;4.60;4.40;;;7.50;99.90;;;;;;4951261;28;20679;-79
2023/01/12 07:02:33;;;;;;;4.60;4.20;;;7.50;99.90;;;;;;4955827;28;20524;-79
2023/01/12 07:04:59;;;;;;;6.15;4.95;;;7.50;99.90;;;;;;4947552;28;20039;-80
2023/01/12 07:07:26;;;;;;;5.22;4.85;;;7.40;99.90;;;;;;4949797;28;20043;-79
2023/01/12 07:09:53;;;;;;;5.35;5.05;;;7.40;99.90;;;;;;4941874;28;20066;-80
2023/01/12 07:12:20;;;;;;;5.00;4.70;;;7.40;99.90;;;;;;4945527;28;20058;-80
2023/01/12 07:14:46;;;;;;;5.47;4.95;;;7.40;99.90;;;;;;4935276;28;20050;-81
2023/01/12 07:17:13;;;;;;;8.75;6.10;;;7.40;99.90;;;;;;4958195;28;20055;-81
2023/01/12 07:19:40;;;;;;;5.20;4.90;;;7.40;99.90;;;;;;4954099;28;20070;-81
2023/01/12 07:22:07;;;;;;;4.38;4.00;;;7.40;99.90;;;;;;4947889;28;20062;-80
2023/01/12 07:24:35;;;;;;;3.53;3.33;;;7.30;99.90;;;;;;4942469;28;20490;-81
2023/01/12 07:27:01;;;;;;;4.35;4.15;;;7.30;99.90;;;;;;4947474;28;20523;-81
2023/01/12 07:29:28;;;;;;;4.13;3.60;;;7.30;99.90;;;;;;4947413;28;20047;-81
2023/01/12 07:31:55;;;;;;;3.72;3.53;;;7.20;99.90;;;;;;4946687;28;20081;-79
2023/01/12 07:34:22;;;;;;;6.20;3.58;;;7.20;99.90;;;;;;4957687;28;20474;-79
2023/01/12 07:36:49;;;;;;;3.72;3.53;;;7.20;99.90;;;;;;4940965;28;20039;-80
2023/01/12 07:39:16;;;;;;;5.20;4.90;;;7.20;99.90;;;;;;4944821;28;20039;-79
2023/01/12 07:44:28;;;;;;;;;;;7.20;99.90;;;;;;4951000;28;20316;-78
2023/01/12 07:46:55;;;;;;;5.35;5.05;;;7.20;99.90;;;;;;4941017;28;20025;-79
2023/01/12 07:49:24;;;;;;;4.70;4.25;;;7.20;99.90;;;;;;4945007;28;20047;-77
2023/01/12 07:51:56;;;;;;;4.55;4.25;;;7.10;99.90;;;;;;4950574;28;20040;-79
2023/01/12 07:54:23;;;;;;;5.13;4.82;;;7.10;99.90;;;;;;4948795;28;21434;-79
2023/01/12 07:56:50;;;;;;;4.80;4.60;;;7.10;99.90;;;;;;4946968;28;20143;-78
2023/01/12 07:59:16;;;;;;;3.90;3.70;;;7.10;99.90;;;;;;4947064;28;20035;-79
2023/01/12 08:01:43;;;;;;;4.88;4.65;;;7.10;99.90;;;;;;4941351;28;20047;-78
2023/01/12 08:04:10;;;;;;;5.32;5.13;;;7.10;99.90;;;;;;4947981;28;20074;-80
2023/01/12 08:06:36;;;;;;;7.13;6.72;;;7.10;99.90;;;;;;4944871;28;20545;-79
2023/01/12 08:09:03;;;;;;;7.20;6.90;;;7.20;99.90;;;;;;4955151;28;20104;-78
2023/01/12 08:11:30;;;;;;;8.27;7.97;;;7.20;99.90;;;;;;4947479;28;20513;-78
2023/01/12 08:13:57;;;;;;;7.50;7.20;;;7.30;99.90;;;;;;4948914;28;20070;-80
2023/01/12 08:16:32;;;;;;;7.60;7.30;;;7.30;99.90;;;;;;4947595;28;20146;-78
2023/01/12 08:19:03;;;;;;;8.90;8.40;;;7.30;99.90;;;;;;4936358;28;20070;-79
2023/01/12 08:21:38;;;;;;;8.50;8.15;;;7.40;99.90;;;;;;4936121;28;20047;-79
2023/01/12 08:24:05;;;;;;;10.13;9.82;;;7.40;99.90;;;;;;5012830;28;20053;-79
2023/01/12 08:26:37;;;;;;;11.43;11.00;;;7.50;99.90;;;;;;4932660;28;20051;-78
2023/01/12 08:29:20;;;;;;;11.60;11.20;;;7.60;99.90;;;;;;4944334;28;20055;-78
2023/01/12 08:31:48;;;;;;;14.77;14.20;;;7.70;99.90;;;;;;4930774;28;20050;-78
2023/01/12 08:34:14;;;;;;;14.50;14.00;;;7.60;99.90;;;;;;4945819;28;20149;-78
2023/01/12 08:36:42;;;;;;;14.05;13.55;;;7.60;99.90;;;;;;4943218;28;20494;-79
2023/01/12 08:39:10;;;;;;;15.75;15.15;;;7.60;99.90;;;;;;4943128;28;20047;-77
2023/01/12 08:41:39;;;;;;;16.33;15.63;;;7.70;99.90;;;;;;4949871;28;20142;-77
2023/01/12 08:44:09;;;;;;;15.95;15.35;;;7.70;99.90;;;;;;4937051;28;20065;-76
2023/01/12 08:46:37;;;;;;;16.17;15.57;;;7.70;99.90;;;;;;4949862;28;20054;-77
2023/01/12 08:49:12;;;;;;;17.60;16.90;;;7.70;99.90;;;;;;4949942;28;20073;-76
2023/01/12 08:51:43;;;;;;;15.65;15.13;;;7.80;99.90;;;;;;4936866;28;20047;-77
2023/01/12 08:54:11;;;;;;;16.42;15.40;;;7.80;99.90;;;;;;4944103;28;20054;-78
2023/01/12 08:56:38;;;;;;;15.73;15.02;;;7.80;99.90;;;;;;4939381;28;20055;-77
2023/01/12 08:59:05;;;;;;;15.68;14.90;;;7.80;99.90;;;;;;4938049;28;20047;-78
2023/01/12 09:01:33;;;;;;;16.08;15.32;;;7.80;99.90;;;;;;4940077;28;20043;-77
2023/01/12 09:04:00;;;;;;;15.65;14.90;;;7.80;99.90;;;;;;4936139;28;20054;-77
2023/01/12 09:06:39;;;;;;;15.55;14.90;;;7.80;99.90;;;;;;4948359;28;20040;-78
2023/01/12 09:09:08;;;;;;;15.57;14.98;;;7.90;99.90;;;;;;4926222;28;20251;-77
2023/01/12 09:11:37;;;;;;;15.80;15.20;;;7.90;99.90;;;;;;4938420;28;20065;-77
2023/01/12 09:14:03;;;;;;;14.38;13.88;;;8.00;99.90;;;;;;4946031;28;20104;-76
2023/01/12 09:16:32;;;;;;;15.02;14.43;;;8.00;99.90;;;;;;4940199;28;20069;-76
2023/01/12 09:18:59;;;;;;;15.25;14.63;;;8.00;99.90;;;;;;4933079;28;20077;-75
2023/01/12 09:21:28;;;;;;;15.65;15.05;;;8.00;99.90;;;;;;4934827;28;20039;-77
2023/01/12 09:23:55;;;;;;;17.10;16.20;;;8.10;99.90;;;;;;4935496;28;20051;-77
2023/01/12 09:26:25;;;;;;;16.60;16.00;;;8.20;99.90;;;;;;4940468;28;20431;-77
2023/01/12 09:28:52;;;;;;;15.07;14.57;;;8.20;99.90;;;;;;4947698;28;20146;-76
2023/01/12 09:31:21;;;;;;;13.95;13.38;;;8.20;99.90;;;;;;4938496;28;20066;-78
2023/01/12 09:33:48;;;;;;;13.13;12.63;;;8.20;99.90;;;;;;4950974;28;20412;-78
2023/01/12 09:36:20;;;;;;;12.82;12.32;;;8.20;99.90;;;;;;4941769;28;20174;-77
2023/01/12 09:38:48;;;;;;;14.30;13.60;;;8.20;99.90;;;;;;4953756;28;20046;-77
2023/01/12 09:47:56;;;;;;;10.85;10.35;;;8.20;99.90;;;;;;4944738;28;20051;-78
2023/01/12 09:50:32;;;;;;;9.53;9.03;;;8.30;99.90;;;;;;4943249;28;20083;-78
2023/01/12 09:53:04;;;;;;;9.27;8.88;;;8.30;99.90;;;;;;4945087;28;20639;-79
2023/01/12 09:55:39;;;;;;;10.10;9.70;;;8.40;99.90;;;;;;4942912;28;20680;-78
2023/01/12 09:58:05;;;;;;;;;;;8.50;99.90;;;;;;4945004;28;20073;-78
2023/01/12 10:00:32;;;;;;;11.23;10.63;;;8.50;99.90;;;;;;4949491;28;19922;-76
2023/01/12 10:03:14;;;;;;;9.95;9.55;;;8.50;99.90;;;;;;4945809;28;20127;-77
2023/01/12 10:05:46;;;;;;;10.40;10.10;;;8.60;99.90;;;;;;4929364;28;20035;-78
2023/01/12 10:08:24;;;;;;;10.82;10.43;;;8.60;99.90;;;;;;4949843;28;20075;-76
2023/01/12 10:11:13;;;;;;;10.13;9.73;;;8.70;99.90;;;;;;4948545;28;20801;-76
2023/01/12 10:14:04;;;;;;;9.60;9.10;;;8.60;99.90;;;;;;4937785;28;20134;-77
2023/01/12 10:16:42;;;;;;;8.02;7.72;;;8.60;99.90;;;;;;4943506;28;20047;-76
2023/01/12 10:19:31;;;;;;;6.60;6.30;;;8.60;99.90;;;;;;4926964;28;20043;-77
2023/01/12 10:22:02;;;;;;;5.40;5.20;;;8.50;99.90;;;;;;4947062;28;20444;-77
2023/01/12 10:24:29;;;;;;;5.63;5.32;;;8.50;99.90;;;;;;4958311;28;20043;-77
2023/01/12 10:27:01;;;;;;;5.57;5.28;;;8.50;99.90;;;;;;4929928;28;20053;-77
2023/01/12 10:29:30;;;;;;;4.93;4.72;;;8.50;99.90;;;;;;4951121;28;20043;-76
2023/01/12 10:31:57;;;;;;;4.63;4.22;;;8.50;99.90;;;;;;4939315;28;20228;-77
2023/01/12 10:34:24;;;;;;;5.10;4.88;;;8.50;99.90;;;;;;4945854;28;20107;-77
2023/01/12 10:36:56;;;;;;;4.93;4.72;;;8.60;99.90;;;;;;4953133;28;20043;-78
2023/01/12 10:39:41;;;;;;;4.85;4.65;;;8.60;99.90;;;;;;4942874;28;20051;-78
2023/01/12 10:45:20;;;;;;;4.03;3.80;;;8.60;99.90;;;;;;4946580;28;20071;-78
2023/01/12 10:47:49;;;;;;;3.92;3.72;;;8.60;99.90;;;;;;4951291;28;20035;-77
2023/01/12 10:50:23;;;;;;;4.45;3.38;;;8.60;99.90;;;;;;4949490;28;20107;-77
2023/01/12 10:52:59;;;;;;;3.15;2.95;;;8.50;99.90;;;;;;4951161;28;20046;-78
2023/01/12 10:55:31;;;;;;;2.97;2.78;;;8.50;99.90;;;;;;4946108;28;21648;-78
2023/01/12 10:57:58;;;;;;;2.70;2.60;;;8.50;99.90;;;;;;4945810;28;20063;-78
2023/01/12 11:00:26;;;;;;;2.55;2.35;;;8.50;99.90;;;;;;4942501;28;20102;-79
2023/01/12 11:02:53;;;;;;;1.90;1.80;;;8.50;99.90;;;;;;4953137;28;20062;-80
2023/01/12 11:05:29;;;;;;;1.73;1.63;;;8.40;99.90;;;;;;4941564;28;20126;-80
2023/01/12 11:07:56;;;;;;;1.70;1.60;;;8.40;99.90;;;;;;4947215;28;20176;-79
2023/01/12 11:10:34;;;;;;;1.70;1.60;;;8.40;99.90;;;;;;4946745;28;20078;-80
2023/01/12 11:13:03;;;;;;;5.40;2.53;;;8.40;99.90;;;;;;4943799;28;20074;-79
2023/01/12 11:15:37;;;;;;;1.83;1.73;;;8.40;99.90;;;;;;4955653;28;20520;-81
2023/01/12 11:18:30;;;;;;;1.75;1.45;;;8.30;99.90;;;;;;4952745;28;20078;-80
2023/01/12 11:21:09;;;;;;;1.17;1.08;;;8.30;99.90;;;;;;4934194;28;20122;-78
2023/01/12 11:23:49;;;;;;;1.65;1.20;;;8.40;99.90;;;;;;4953642;28;20043;-79
2023/01/12 11:26:25;;;;;;;1.50;1.30;;;8.40;99.90;;;;;;4940137;28;20057;-79
2023/01/12 11:28:55;;;;;;;1.40;1.30;;;8.40;99.90;;;;;;4943922;28;20105;-80
2023/01/12 11:31:28;;;;;;;2.85;1.15;;;8.40;99.90;;;;;;4946063;28;20154;-79
2023/01/12 11:34:00;;;;;;;1.38;1.20;;;8.40;99.90;;;;;;4950938;28;20046;-80
2023/01/12 11:36:41;;;;;;;1.20;1.10;;;8.40;99.90;;;;;;4958470;28;20061;-79
2023/01/12 11:39:18;;;;;;;1.25;1.15;;;8.50;99.90;;;;;;4951878;28;20053;-80
2023/01/12 11:44:49;;;;;;;1.50;1.40;;;8.50;99.90;;;;;;4951253;28;20119;-80
2023/01/12 11:47:22;;;;;;;3.67;0.95;;;8.50;99.90;;;;;;4950943;28;20237;-80
2023/01/12 11:49:57;;;;;;;1.65;1.05;;;8.50;99.90;;;;;;4953545;28;20054;-80
2023/01/12 11:52:25;;;;;;;1.45;1.35;;;8.50;99.90;;;;;;4956915;28;20050;-79
2023/01/12 11:54:52;;;;;;;2.00;1.13;;;8.50;99.90;;;;;;4948382;28;20114;-80
2023/01/12 11:57:39;;;;;;;1.67;1.30;;;8.50;99.90;;;;;;4948480;28;20086;-81
2023/01/12 12:00:24;;;;;;;1.80;0.90;;;8.60;99.90;;;;;;4949757;28;20051;-80
2023/01/12 12:03:19;;;;;;;1.30;1.15;;;8.60;99.90;;;;;;4943076;28;20695;-79
2023/01/12 12:06:11;;;;;;;1.20;0.90;;;8.60;99.90;;;;;;4958925;28;20385;-81
2023/01/12 12:09:13;;;;;;;2.15;0.80;;;8.60;99.90;;;;;;4957119;28;20050;-79
2023/01/12 12:12:00;;;;;;;1.70;1.13;;;8.70;99.90;;;;;;4958569;28;20051;-79
2023/01/12 12:15:03;;;;;;;1.73;1.63;;;8.70;99.90;;;;;;4968165;28;20082;-78
2023/01/12 12:18:03;;;;;;;1.15;1.02;;;8.70;99.90;;;;;;4985099;28;20328;-79
2023/01/12 12:20:55;;;;;;;1.27;0.90;;;8.70;99.90;;;;;;4973748;28;20090;-79
2023/01/12 12:23:51;;;;;;;1.02;0.93;;;8.70;99.90;;;;;;4961696;28;20526;-78
2023/01/12 12:26:34;;;;;;;2.05;1.23;;;8.80;99.90;;;;;;4958100;28;20564;-79
2023/01/12 12:29:27;;;;;;;0.90;0.90;;;8.80;99.90;;;;;;4946183;28;20126;-78
2023/01/12 12:32:05;;;;;;;0.80;0.80;;;8.80;99.90;;;;;;4934577;28;20082;-79
2023/01/12 12:34:58;;;;;;;0.70;0.70;;;8.80;99.90;;;;;;4955156;28;20566;-79
2023/01/12 12:37:45;;;;;;;1.48;0.80;;;8.90;99.90;;;;;;4951075;28;20084;-79
2023/01/12 12:40:31;;;;;;;0.68;0.68;;;8.90;99.90;;;;;;4935317;28;20435;-80
2023/01/12 12:46:21;;;;;;;1.40;1.05;;;8.90;99.90;;;;;;4949326;28;20137;-79
2023/01/12 12:49:12;;;;;;;1.02;1.02;;;8.90;99.90;;;;;;4949682;28;20043;-78
2023/01/12 12:51:40;;;;;;;2.00;1.35;;;8.90;99.90;;;;;;4945915;28;20141;-79
2023/01/12 12:54:16;;;;;;;1.67;1.40;;;8.90;99.90;;;;;;4948872;28;20044;-80
2023/01/12 12:56:44;;;;;;;1.30;1.20;;;8.90;99.90;;;;;;4974153;28;20042;-78
2023/01/12 12:59:32;;;;;;;1.30;1.20;;;8.90;99.90;;;;;;4958979;28;20046;-78
2023/01/12 13:02:01;;;;;;;0.88;0.88;;;8.90;99.90;;;;;;4936775;28;20043;-81
2023/01/12 13:05:00;;;;;;;1.40;1.30;;;9.00;99.90;;;;;;4946127;28;20074;-78
2023/01/12 13:07:33;;;;;;;1.35;0.88;;;9.00;99.90;;;;;;4946951;28;20073;-79
2023/01/12 13:10:25;;;;;;;1.35;1.25;;;9.00;99.90;;;;;;4945039;28;20048;-79
2023/01/12 13:13:01;;;;;;;1.67;1.30;;;9.00;99.90;;;;;;4941954;28;20169;-80
2023/01/12 13:15:35;;;;;;;2.03;1.83;;;9.00;99.90;;;;;;4933096;28;20287;-80
2023/01/12 13:18:04;;;;;;;1.60;1.50;;;9.00;99.90;;;;;;4943489;28;20093;-79
2023/01/12 13:20:50;;;;;;;3.00;2.70;;;9.00;99.90;;;;;;4943194;28;20117;-81
2023/01/12 13:23:50;;;;;;;2.47;2.08;;;9.00;99.90;;;;;;4929934;28;20048;-79
2023/01/12 13:26:33;;;;;;;1.45;1.35;;;9.00;99.90;;;;;;4989870;28;20059;-79
2023/01/12 13:29:22;;;;;;;1.10;1.00;;;9.00;99.90;;;;;;4951883;28;20052;-80
2023/01/12 13:31:51;;;;;;;1.58;0.90;;;9.10;99.90;;;;;;4946851;28;20043;-80
2023/01/12 13:34:36;;;;;;;2.08;1.58;;;9.10;99.90;;;;;;4950382;28;20055;-80
2023/01/12 13:37:34;;;;;;;1.52;1.05;;;9.10;99.90;;;;;;4947768;28;20039;-79
2023/01/12 13:40:14;;;;;;;1.13;1.02;;;9.10;99.90;;;;;;4945952;28;20077;-80
2023/01/12 13:45:31;;;;;;;1.30;1.20;;;9.10;99.90;;;;;;4944480;28;20319;-78
2023/01/12 13:47:58;;;;;;;1.60;1.50;;;9.10;99.90;;;;;;4936647;28;20563;-78
2023/01/12 13:50:26;;;;;;;2.60;0.90;;;9.10;99.90;;;;;;4940313;28;20142;-80
2023/01/12 13:52:58;;;;;;;1.20;1.10;;;9.10;99.90;;;;;;4949226;28;20058;-80
2023/01/12 13:55:27;;;;;;;1.38;1.27;;;9.10;99.90;;;;;;4944994;28;20100;-80
2023/01/12 13:58:00;;;;;;;1.30;1.20;;;9.10;99.90;;;;;;4951923;28;20074;-78
2023/01/12 14:00:31;;;;;;;3.00;1.30;;;9.10;99.90;;;;;;4941367;28;20049;-80
2023/01/12 14:02:58;;;;;;;0.95;0.90;;;9.10;99.90;;;;;;4943822;28;20118;-80
2023/01/12 14:05:31;;;;;;;1.60;1.50;;;9.00;99.90;;;;;;4944747;28;20051;-80
2023/01/12 14:08:19;;;;;;;1.10;1.10;;;9.10;99.90;;;;;;4958348;28;20055;-80